createdAt,value
2022-12-03T00:00:24.976Z,19.33
2022-12-03T00:05:48.990Z,20.53
2022-12-03T00:11:11.811Z,19.90
2022-12-03T00:16:34.455Z,18.77
2022-12-03T00:21:56.508Z,20.53
2022-12-03T00:27:18.982Z,19.07
2022-12-03T00:32:41.596Z,20.83
2022-12-03T00:38:06.629Z,21.00
2022-12-03T00:43:29.125Z,20.37
2022-12-03T00:48:51.322Z,19.37
2022-12-03T00:54:13.816Z,20.73
2022-12-03T00:59:35.901Z,21.33
2022-12-03T01:04:58.629Z,20.23
2022-12-03T01:10:20.827Z,19.83
2022-12-03T01:15:43.095Z,20.13
2022-12-03T01:21:05.943Z,20.90
2022-12-03T01:26:28.196Z,19.57
2022-12-03T01:32:08.996Z,17.83
2022-12-03T01:37:31.465Z,21.13
2022-12-03T01:42:53.746Z,18.30
2022-12-03T01:48:16.823Z,17.97
2022-12-03T01:53:39.486Z,20.40
2022-12-03T01:59:02.647Z,20.30
2022-12-03T02:04:25.075Z,20.30
2022-12-03T02:09:48.029Z,20.27
2022-12-03T02:15:11.264Z,19.93
2022-12-03T02:20:40.830Z,18.60
2022-12-03T02:26:03.705Z,19.47
2022-12-03T02:31:26.390Z,18.10
2022-12-03T02:36:48.859Z,19.87
2022-12-03T02:42:30.806Z,19.70
2022-12-03T02:47:56.768Z,20.37
2022-12-03T02:53:22.614Z,17.83
2022-12-03T02:58:48.634Z,19.87
2022-12-03T03:04:11.420Z,20.33
2022-12-03T03:09:34.777Z,18.90
2022-12-03T03:14:58.281Z,20.47
2022-12-03T03:20:20.937Z,20.50
2022-12-03T03:25:58.937Z,18.67
2022-12-03T03:31:24.296Z,18.07
2022-12-03T03:36:47.097Z,21.23
2022-12-03T03:42:09.648Z,19.70
2022-12-03T03:47:32.560Z,19.83
2022-12-03T03:52:56.853Z,21.27
2022-12-03T03:58:19.343Z,19.37
2022-12-03T04:03:41.912Z,20.33
2022-12-03T04:09:04.165Z,19.93
2022-12-03T04:14:26.628Z,18.60
2022-12-03T04:19:48.978Z,17.87
2022-12-03T04:25:29.940Z,19.27
2022-12-03T04:30:52.134Z,20.40
2022-12-03T04:36:14.487Z,18.80
2022-12-03T04:41:37.050Z,19.60
2022-12-03T04:47:00.494Z,19.07
2022-12-03T04:52:23.406Z,18.43
2022-12-03T04:57:45.972Z,19.50
2022-12-03T05:03:08.431Z,18.67
2022-12-03T05:08:30.704Z,20.53
2022-12-03T05:13:53.887Z,20.93
2022-12-03T05:19:16.125Z,20.23
2022-12-03T05:24:38.630Z,20.97
2022-12-03T05:30:02.239Z,20.40
2022-12-03T05:35:25.122Z,20.17
2022-12-03T05:40:47.935Z,20.77
2022-12-03T05:46:10.281Z,20.33
2022-12-03T05:51:32.605Z,18.93
2022-12-03T05:56:54.927Z,21.27
2022-12-03T06:02:17.333Z,19.83
2022-12-03T06:07:39.901Z,20.57
2022-12-03T06:13:03.409Z,19.07
2022-12-03T06:18:25.575Z,20.23
2022-12-03T06:23:47.996Z,18.57
2022-12-03T06:29:10.667Z,21.43
2022-12-03T06:34:33.438Z,21.17
2022-12-03T06:39:56.024Z,20.67
2022-12-03T06:45:18.696Z,21.73
2022-12-03T06:50:41.138Z,20.47
2022-12-03T06:56:03.647Z,21.13
2022-12-03T07:01:26.631Z,20.93
2022-12-03T07:06:48.714Z,21.87
2022-12-03T07:12:11.189Z,20.60
2022-12-03T07:17:33.451Z,21.10
2022-12-03T07:22:55.862Z,22.20
2022-12-03T07:28:18.328Z,22.07
2022-12-03T07:33:40.612Z,22.10
2022-12-03T07:39:03.332Z,20.77
2022-12-03T07:44:26.274Z,22.87
2022-12-03T07:49:48.446Z,21.50
2022-12-03T07:55:12.734Z,20.70
2022-12-03T08:00:35.140Z,20.30
2022-12-03T08:05:57.623Z,21.90
2022-12-03T08:11:20.202Z,21.97
2022-12-03T08:16:44.180Z,21.07
2022-12-03T08:22:13.162Z,20.57
2022-12-03T08:27:35.968Z,19.70
2022-12-03T08:32:59.177Z,20.83
2022-12-03T08:38:24.876Z,21.00
2022-12-03T08:43:47.125Z,20.03
2022-12-03T08:49:09.667Z,20.50
2022-12-03T08:54:31.957Z,19.63
2022-12-03T08:59:58.959Z,22.33
2022-12-03T09:05:39.601Z,21.77
2022-12-03T09:11:02.735Z,21.27
2022-12-03T09:16:25.117Z,21.67
2022-12-03T09:21:47.789Z,21.23
2022-12-03T09:27:10.006Z,19.50
2022-12-03T09:32:32.390Z,21.07
2022-12-03T09:37:55.039Z,21.53
2022-12-03T09:43:18.662Z,19.37
2022-12-03T09:48:41.088Z,20.90
2022-12-03T09:54:05.854Z,20.43
2022-12-03T09:59:33.657Z,20.33
2022-12-03T10:04:57.646Z,20.90
2022-12-03T10:10:22.776Z,20.37
2022-12-03T10:15:45.080Z,20.60
2022-12-03T10:21:18.831Z,20.77
2022-12-03T10:26:41.362Z,19.70
2022-12-03T10:32:10.095Z,20.57
2022-12-03T10:37:32.317Z,20.40
2022-12-03T10:43:18.571Z,19.90
2022-12-03T10:48:40.820Z,18.87
2022-12-03T10:54:03.953Z,20.50
2022-12-03T10:59:30.180Z,19.37
2022-12-03T11:04:53.107Z,19.37
2022-12-03T11:10:17.863Z,19.67
2022-12-03T11:15:45.193Z,18.67
2022-12-03T11:21:09.350Z,18.77
2022-12-03T11:26:40.292Z,19.00
2022-12-03T11:32:02.631Z,20.07
2022-12-03T11:37:26.212Z,18.40
2022-12-03T11:42:49.666Z,19.17
2022-12-03T11:48:15.059Z,18.37
2022-12-03T11:53:37.550Z,18.00
2022-12-03T11:59:03.343Z,19.17
2022-12-03T12:04:35.102Z,18.33
2022-12-03T12:09:57.877Z,18.57
2022-12-03T12:15:39.032Z,19.37
2022-12-03T12:21:43.563Z,19.27
2022-12-03T12:27:07.504Z,19.23
2022-12-03T12:32:34.100Z,18.17
2022-12-03T12:38:10.966Z,18.00
2022-12-03T12:43:36.036Z,18.97
2022-12-03T12:49:00.099Z,16.53
2022-12-03T12:54:23.895Z,18.57
2022-12-03T12:59:46.301Z,19.13
2022-12-03T13:05:11.668Z,17.57
2022-12-03T13:10:38.338Z,17.93
2022-12-03T13:16:04.067Z,16.43
2022-12-03T13:21:40.035Z,17.93
2022-12-03T13:27:26.008Z,17.70
2022-12-03T13:32:48.501Z,17.07
2022-12-03T13:38:15.454Z,19.10
2022-12-03T13:43:44.334Z,18.27
2022-12-03T13:49:18.904Z,17.27
2022-12-03T13:54:41.247Z,17.83
2022-12-03T14:00:04.436Z,17.40
2022-12-03T14:05:34.596Z,17.50
2022-12-03T14:11:00.471Z,18.00
2022-12-03T14:16:23.606Z,18.00
2022-12-03T14:21:45.842Z,16.00
2022-12-03T14:27:08.999Z,16.63
2022-12-03T14:32:31.929Z,16.77
2022-12-03T14:37:54.086Z,16.70
2022-12-03T14:43:16.265Z,16.60
2022-12-03T14:48:38.536Z,16.37
2022-12-03T14:54:01.006Z,17.60
2022-12-03T14:59:27.576Z,17.60
2022-12-03T15:04:50.933Z,16.83
2022-12-03T15:10:13.756Z,15.50
2022-12-03T15:15:35.882Z,18.70
2022-12-03T15:20:58.066Z,16.37
2022-12-03T15:26:20.596Z,16.80
2022-12-03T15:31:43.203Z,17.33
2022-12-03T15:37:05.487Z,17.73
2022-12-03T15:42:29.867Z,15.73
2022-12-03T15:47:52.317Z,17.07
2022-12-03T15:53:14.670Z,16.93
2022-12-03T15:58:36.735Z,15.70
2022-12-03T16:03:59.146Z,17.47
2022-12-03T16:09:27.965Z,18.33
2022-12-03T16:14:50.861Z,17.93
2022-12-03T16:20:13.181Z,17.90
2022-12-03T16:25:35.365Z,18.13
2022-12-03T16:30:58.969Z,17.83
2022-12-03T16:36:21.088Z,19.20
2022-12-03T16:41:43.536Z,16.60
2022-12-03T16:47:05.799Z,17.47
2022-12-03T16:52:28.373Z,17.37
2022-12-03T16:57:50.629Z,18.63
2022-12-03T17:03:13.439Z,19.10
2022-12-03T17:08:35.933Z,16.93
2022-12-03T17:13:58.521Z,18.37
2022-12-03T17:19:20.972Z,17.40
2022-12-03T17:24:43.225Z,19.40
2022-12-03T17:30:07.321Z,17.60
2022-12-03T17:35:29.567Z,18.13
2022-12-03T17:40:51.706Z,18.33
2022-12-03T17:46:14.345Z,18.27
2022-12-03T17:51:36.699Z,18.97
2022-12-03T17:56:59.078Z,19.67
2022-12-03T18:02:21.624Z,20.70
2022-12-03T18:07:43.976Z,16.63
2022-12-03T18:13:06.998Z,19.83
2022-12-03T18:18:29.373Z,18.13
2022-12-03T18:23:52.452Z,21.30
2022-12-03T18:29:14.625Z,19.37
2022-12-03T18:34:37.306Z,19.73
2022-12-03T18:40:00.627Z,19.63
2022-12-03T18:45:23.786Z,21.13
2022-12-03T18:50:46.672Z,21.63
2022-12-03T18:56:10.201Z,20.07
2022-12-03T19:01:33.719Z,20.07
2022-12-03T19:06:56.272Z,21.67
2022-12-03T19:12:18.790Z,22.07
2022-12-03T19:17:41.249Z,19.33
2022-12-03T19:23:03.988Z,21.63
2022-12-03T19:28:26.646Z,22.40
2022-12-03T19:33:49.367Z,22.47
2022-12-03T19:39:11.719Z,21.43
2022-12-03T19:44:33.855Z,19.20
2022-12-03T19:49:56.579Z,20.43
2022-12-03T19:55:19.702Z,22.47
2022-12-03T20:00:41.969Z,20.40
2022-12-03T20:06:04.774Z,21.03
2022-12-03T20:11:29.806Z,21.67
2022-12-03T20:16:52.499Z,20.77
2022-12-03T20:22:14.985Z,21.50
2022-12-03T20:27:37.683Z,24.60
2022-12-03T20:32:59.810Z,22.27
2022-12-03T20:38:23.966Z,20.93
2022-12-03T20:43:46.214Z,22.63
2022-12-03T20:49:08.632Z,22.77
2022-12-03T20:54:31.213Z,23.73
2022-12-03T20:59:55.466Z,23.77
2022-12-03T21:05:18.596Z,24.97
2022-12-03T21:10:45.170Z,24.63
2022-12-03T21:16:10.210Z,22.87
2022-12-03T21:21:33.044Z,23.93
2022-12-03T21:26:55.996Z,22.60
2022-12-03T21:32:18.348Z,24.17
2022-12-03T21:37:40.695Z,25.53
2022-12-03T21:43:02.965Z,24.03
2022-12-03T21:48:25.545Z,24.80
2022-12-03T21:53:47.848Z,22.57
2022-12-03T21:59:10.179Z,23.63
2022-12-03T22:04:34.174Z,22.40
2022-12-03T22:09:56.610Z,24.27
2022-12-03T22:15:19.714Z,24.93
2022-12-03T22:20:42.825Z,24.27
2022-12-03T22:26:11.180Z,23.80
2022-12-03T22:31:33.338Z,26.40
2022-12-03T22:36:55.761Z,23.70
2022-12-03T22:42:18.272Z,25.87
2022-12-03T22:47:40.405Z,25.80
2022-12-03T22:53:03.004Z,24.97
2022-12-03T22:58:26.280Z,25.80
2022-12-03T23:03:48.922Z,26.97
2022-12-03T23:09:11.755Z,27.20
2022-12-03T23:14:33.997Z,26.43
2022-12-03T23:19:56.543Z,27.50
2022-12-03T23:25:20.219Z,27.70
2022-12-03T23:30:42.763Z,26.53
2022-12-03T23:36:06.556Z,25.77
2022-12-03T23:41:29.050Z,26.20
2022-12-03T23:46:51.332Z,26.67
2022-12-03T23:52:13.793Z,26.03
2022-12-03T23:57:36.533Z,28.23
